Wellington, CO (80549)

4:56 AM MST on January 27, 2015 (GMT -0700)
La Luna Dairy | Change Station
CLOSE
Current Station
Personal Weather Station
Location: Wellington, CO
Elevation: 5250 ft
Nearby Weather Stations

Elev 5250 ft 40.72 °N, 105.02 °W | Updated 34 seconds ago

Clear
Clear
53.0 °F
Feels Like 53.0 °F
N
6.0
Wind Variable Wind from WNW
Gusts 13.0 mph

Today
High -- | Low -- °F
--% Chance of Precip.
Yesterday
High -- | Low -- °F
Precip. -- in
7:14 AM 5:11 PM
First Quarter, 53% visible
Pressure 30.14 in
Visibility 10.0 miles
Clouds Clear
Dew Point 23 °F
Humidity 31%
Rainfall -999.00 in
Snow Depth Not available.
UV 0 out of 12
Pollen 2.90 out of 12
Air Quality Not available.
Flu Activity Not available.
METAR KFNL 271135Z AUTO 12006KT 10SM CLR 03/M06 A3014 RMK AO1

More Conditions Fewer Conditions

Pressure 30.14 in
Visibility 10.0 miles
Clouds Clear
Dew Point 23 °F
Humidity 31%
Rainfall -999.00 in
Snow Depth Not available.
UV 0 out of 12
Pollen 2.90 out of 12
Air Quality Not available.
Flu Activity Not available.
METAR KFNL 271135Z AUTO 12006KT 10SM CLR 03/M06 A3014 RMK AO1

More Conditions Fewer Conditions

10-Day Weather Forecast

Almanac

Astronomy

Jan. 27, 2015 Rise Set
Actual Time
Civil Twilight
Nautical Twilight
Astronomical Twilight
Moon
Length of Visible Light
Length of Day
Tomorrow will be .
, % of the Moon is Illuminated

Today's Extremes

State Highs State Lows

Community

WunderPhotos

Upload Photos

1,790,566 photos uploaded!

WunderBlogs® & News

Nearby

Air Quality

  Air Quality AQ Index Pollutant
Not available.

Snow Depth

Station Depth Elevation

Earthquake Activity

City Distance Mag. Time & Date
Minimum magnitude displayed is 2.5.

Coastal Water Temperatures

Place Temperature

Nearby Weather Stations